createdAt,value
2019-06-10T00:02:15.991Z,2.43
2019-06-10T00:04:45.817Z,1.83
2019-06-10T00:07:15.882Z,2.57
2019-06-10T00:09:45.687Z,2.30
2019-06-10T00:12:15.572Z,2.30
2019-06-10T00:14:45.457Z,2.20
2019-06-10T00:17:15.453Z,1.83
2019-06-10T00:19:45.173Z,2.50
2019-06-10T00:22:14.904Z,2.03
2019-06-10T00:24:44.674Z,2.17
2019-06-10T00:27:14.472Z,1.90
2019-06-10T00:29:44.179Z,1.83
2019-06-10T00:32:13.963Z,2.40
2019-06-10T00:34:43.898Z,2.10
2019-06-10T00:37:15.113Z,1.80
2019-06-10T00:39:45.005Z,1.90
2019-06-10T00:42:15.440Z,1.90
2019-06-10T00:44:45.380Z,2.23
2019-06-10T00:47:15.627Z,1.93
2019-06-10T00:49:46.336Z,2.03
2019-06-10T00:52:16.109Z,1.40
2019-06-10T00:54:46.047Z,1.80
2019-06-10T00:57:15.845Z,1.50
2019-06-10T00:59:45.575Z,2.27
2019-06-10T01:02:15.336Z,2.73
2019-06-10T01:04:45.653Z,3.73
2019-06-10T01:07:15.576Z,1.80
2019-06-10T01:09:45.390Z,1.97
2019-06-10T01:12:15.376Z,2.37
2019-06-10T01:14:45.199Z,2.13
2019-06-10T01:17:15.418Z,1.70
2019-06-10T01:19:45.636Z,2.37
2019-06-10T01:22:15.972Z,2.07
2019-06-10T01:24:47.057Z,1.70
2019-06-10T01:27:18.075Z,1.80
2019-06-10T01:29:51.108Z,2.73
2019-06-10T01:32:21.647Z,1.97
2019-06-10T01:34:51.663Z,2.53
2019-06-10T01:37:22.033Z,2.10
2019-06-10T01:39:51.886Z,2.00
2019-06-10T01:42:21.758Z,2.20
2019-06-10T01:44:51.451Z,3.40
2019-06-10T01:47:21.664Z,2.07
2019-06-10T01:49:51.827Z,1.63
2019-06-10T01:52:22.544Z,2.60
2019-06-10T01:54:52.270Z,1.67
2019-06-10T01:57:22.194Z,1.80
2019-06-10T01:59:52.126Z,1.93
2019-06-10T02:02:24.372Z,1.60
2019-06-10T02:04:54.237Z,2.30
2019-06-10T02:07:24.366Z,1.70
2019-06-10T02:09:54.245Z,2.00
2019-06-10T02:12:24.450Z,1.70
2019-06-10T02:14:54.700Z,1.90
2019-06-10T02:17:24.471Z,2.73
2019-06-10T02:19:54.324Z,2.83
2019-06-10T02:22:24.548Z,2.27
2019-06-10T02:24:54.478Z,2.33
2019-06-10T02:27:24.347Z,2.63
2019-06-10T02:29:54.195Z,2.57
2019-06-10T02:32:31.632Z,2.97
2019-06-10T02:35:08.002Z,2.13
2019-06-10T02:37:32.346Z,2.50
2019-06-10T02:39:59.394Z,2.17
2019-06-10T02:42:35.754Z,1.90
2019-06-10T02:45:07.338Z,2.20
2019-06-10T02:47:38.269Z,2.70
2019-06-10T02:50:10.049Z,2.77
2019-06-10T02:52:44.286Z,2.50
2019-06-10T02:55:16.351Z,2.23
2019-06-10T02:57:46.041Z,3.30
2019-06-10T03:00:30.521Z,1.80
2019-06-10T03:02:48.904Z,2.20
2019-06-10T03:05:21.284Z,2.33
2019-06-10T03:07:53.109Z,2.27
2019-06-10T03:10:29.548Z,2.93
2019-06-10T03:12:53.575Z,2.50
2019-06-10T03:15:25.164Z,3.30
2019-06-10T03:17:54.842Z,2.47
2019-06-10T03:20:25.946Z,2.13
2019-06-10T03:22:55.908Z,2.83
2019-06-10T03:25:26.436Z,2.53
2019-06-10T03:27:57.157Z,3.40
2019-06-10T03:30:44.954Z,2.43
2019-06-10T03:32:58.378Z,2.60
2019-06-10T03:35:28.507Z,4.43
2019-06-10T03:37:58.418Z,3.07
2019-06-10T03:40:28.186Z,3.10
2019-06-10T03:42:57.917Z,2.90
2019-06-10T03:45:28.520Z,2.90
2019-06-10T03:47:58.481Z,3.77
2019-06-10T03:50:28.706Z,2.70
2019-06-10T03:53:01.060Z,2.53
2019-06-10T03:55:29.990Z,4.03
2019-06-10T03:58:02.082Z,3.47
2019-06-10T04:00:32.719Z,2.50
2019-06-10T04:03:02.788Z,3.73
2019-06-10T04:05:33.113Z,2.70
2019-06-10T04:08:24.806Z,3.20
2019-06-10T04:10:53.639Z,3.67
2019-06-10T04:13:25.423Z,2.60
2019-06-10T04:15:57.313Z,3.13
2019-06-10T04:18:29.329Z,3.17
2019-06-10T04:21:02.298Z,2.63
2019-06-10T04:23:33.570Z,3.43
2019-06-10T04:26:03.585Z,3.23
2019-06-10T04:28:33.848Z,3.00
2019-06-10T04:31:03.708Z,3.30
2019-06-10T04:33:33.420Z,2.60
2019-06-10T04:36:03.275Z,2.67
2019-06-10T04:38:33.073Z,3.13
2019-06-10T04:41:03.286Z,2.53
2019-06-10T04:43:33.545Z,2.63
2019-06-10T04:46:03.389Z,2.77
2019-06-10T04:48:33.198Z,2.20
2019-06-10T04:51:03.083Z,2.77
2019-06-10T04:53:33.767Z,2.63
2019-06-10T04:56:03.603Z,2.60
2019-06-10T04:58:33.714Z,2.80
2019-06-10T05:01:03.756Z,2.63
2019-06-10T05:03:33.638Z,2.80
2019-06-10T05:06:03.607Z,2.30
2019-06-10T05:08:34.011Z,2.60
2019-06-10T05:11:03.983Z,2.97
2019-06-10T05:13:33.905Z,2.33
2019-06-10T05:16:04.318Z,2.83
2019-06-10T05:18:34.192Z,2.67
2019-06-10T05:21:03.974Z,2.37
2019-06-10T05:23:33.689Z,2.30
2019-06-10T05:26:03.383Z,2.67
2019-06-10T05:28:34.230Z,2.20
2019-06-10T05:31:05.348Z,2.07
2019-06-10T05:33:35.059Z,2.50
2019-06-10T05:36:05.959Z,2.50
2019-06-10T05:38:35.977Z,1.97
2019-06-10T05:41:05.713Z,2.63
2019-06-10T05:43:36.482Z,2.73
2019-06-10T05:46:06.166Z,2.10
2019-06-10T05:48:36.027Z,2.10
2019-06-10T05:51:06.884Z,2.17
2019-06-10T05:53:36.871Z,2.60
2019-06-10T05:56:06.644Z,1.73
2019-06-10T05:58:36.356Z,1.67
2019-06-10T06:01:06.067Z,1.70
2019-06-10T06:03:37.066Z,1.80
2019-06-10T06:06:07.850Z,1.87
2019-06-10T06:08:37.687Z,2.63
2019-06-10T06:11:07.487Z,1.63
2019-06-10T06:13:38.055Z,1.27
2019-06-10T06:16:08.091Z,2.07
2019-06-10T06:18:38.365Z,2.60
2019-06-10T06:21:22.597Z,1.50
2019-06-10T06:23:43.636Z,1.37
2019-06-10T06:26:16.479Z,2.43
2019-06-10T06:28:44.427Z,1.50
2019-06-10T06:31:14.803Z,1.57
2019-06-10T06:33:44.558Z,1.70
2019-06-10T06:36:14.353Z,1.80
2019-06-10T06:38:44.047Z,1.70
2019-06-10T06:41:14.750Z,1.50
2019-06-10T06:43:45.385Z,1.53
2019-06-10T06:46:15.549Z,1.37
2019-06-10T06:48:45.599Z,1.27
2019-06-10T06:51:15.500Z,1.50
2019-06-10T06:53:51.714Z,1.90
2019-06-10T06:56:16.693Z,1.73
2019-06-10T06:58:46.553Z,1.90
2019-06-10T07:01:16.471Z,1.50
2019-06-10T07:03:46.306Z,1.27
2019-06-10T07:06:17.400Z,1.50
2019-06-10T07:09:03.761Z,1.43
2019-06-10T07:11:22.275Z,1.20
2019-06-10T07:13:53.625Z,1.40
2019-06-10T07:16:23.467Z,1.22
2019-06-10T07:18:53.937Z,1.47
2019-06-10T07:21:24.222Z,1.40
2019-06-10T07:23:54.083Z,1.20
2019-06-10T07:26:25.383Z,1.37
2019-06-10T07:28:55.269Z,1.32
2019-06-10T07:31:28.056Z,1.30
2019-06-10T07:33:56.459Z,2.30
2019-06-10T07:36:26.118Z,2.25
2019-06-10T07:38:55.951Z,1.12
2019-06-10T07:41:25.678Z,1.15
2019-06-10T07:43:56.594Z,1.10
2019-06-10T07:46:26.431Z,1.30
2019-06-10T07:48:59.147Z,1.62
2019-06-10T07:51:28.987Z,1.30
2019-06-10T07:53:59.639Z,1.30
2019-06-10T07:56:33.835Z,0.90
2019-06-10T07:59:03.593Z,1.17
2019-06-10T08:01:33.295Z,1.42
2019-06-10T08:04:03.982Z,1.22
2019-06-10T08:06:35.144Z,1.27
2019-06-10T08:09:06.366Z,1.20
2019-06-10T08:11:39.321Z,1.25
2019-06-10T08:14:10.099Z,1.00
2019-06-10T08:16:39.906Z,1.07
2019-06-10T08:19:34.931Z,1.07
2019-06-10T08:21:48.888Z,1.25
2019-06-10T08:24:16.363Z,1.57
2019-06-10T08:26:47.957Z,1.75
2019-06-10T08:29:17.844Z,1.22
2019-06-10T08:31:49.414Z,1.30
2019-06-10T08:34:19.095Z,1.20
2019-06-10T08:36:50.557Z,0.90
2019-06-10T08:39:22.504Z,0.93
2019-06-10T08:41:52.795Z,0.90
2019-06-10T08:44:23.122Z,1.00
2019-06-10T08:46:53.090Z,1.40
2019-06-10T08:49:23.853Z,1.42
2019-06-10T08:51:54.103Z,1.20
2019-06-10T08:54:24.203Z,1.10
2019-06-10T08:56:54.310Z,1.37
2019-06-10T08:59:24.275Z,1.12
2019-06-10T09:01:56.906Z,1.42
2019-06-10T09:04:25.566Z,1.20
2019-06-10T09:06:55.375Z,1.35
2019-06-10T09:09:27.234Z,1.45
2019-06-10T09:11:57.060Z,1.15
2019-06-10T09:14:27.116Z,0.87
2019-06-10T09:16:56.886Z,1.40
2019-06-10T09:19:26.810Z,1.10
2019-06-10T09:21:56.767Z,1.20
2019-06-10T09:24:38.972Z,1.30
2019-06-10T09:27:10.218Z,1.13
2019-06-10T09:29:41.712Z,1.00
2019-06-10T09:32:12.487Z,1.50
2019-06-10T09:34:47.162Z,1.30
2019-06-10T09:37:13.936Z,1.40
2019-06-10T09:39:49.825Z,1.30
2019-06-10T09:42:15.561Z,1.20
2019-06-10T09:44:48.462Z,1.23
2019-06-10T09:47:17.599Z,1.07
2019-06-10T09:49:51.428Z,1.10
2019-06-10T09:52:23.929Z,1.53
2019-06-10T09:54:56.560Z,1.10
2019-06-10T09:57:26.251Z,1.17
2019-06-10T10:00:04.017Z,1.63
2019-06-10T10:02:34.355Z,1.50
2019-06-10T10:05:05.597Z,1.37
2019-06-10T10:07:36.863Z,1.33
2019-06-10T10:10:07.801Z,1.40
2019-06-10T10:12:37.583Z,1.73
2019-06-10T10:15:22.578Z,1.55
2019-06-10T10:17:44.480Z,1.75
2019-06-10T10:20:12.987Z,1.97
2019-06-10T10:22:44.402Z,2.03
2019-06-10T10:25:14.823Z,1.70
2019-06-10T10:27:48.868Z,1.90
2019-06-10T10:30:19.615Z,2.00
2019-06-10T10:32:51.058Z,1.40
2019-06-10T10:35:21.438Z,1.80
2019-06-10T10:37:54.214Z,2.30
2019-06-10T10:40:23.407Z,1.40
2019-06-10T10:43:05.470Z,1.70
2019-06-10T10:45:25.056Z,1.37
2019-06-10T10:47:57.458Z,1.55
2019-06-10T10:50:26.303Z,1.75
2019-06-10T10:52:56.187Z,1.80
2019-06-10T10:55:25.916Z,1.37
2019-06-10T10:57:55.936Z,1.52
2019-06-10T11:00:33.743Z,1.27
2019-06-10T11:03:02.875Z,1.45
2019-06-10T11:05:34.343Z,1.90
2019-06-10T11:08:05.805Z,1.82
2019-06-10T11:10:36.291Z,2.00
2019-06-10T11:13:08.448Z,1.22
2019-06-10T11:15:38.633Z,1.60
2019-06-10T11:18:12.411Z,1.40
2019-06-10T11:20:41.386Z,1.55
2019-06-10T11:23:12.364Z,1.62
2019-06-10T11:25:43.129Z,1.50
2019-06-10T11:28:13.275Z,1.65
2019-06-10T11:30:45.267Z,1.77
2019-06-10T11:33:15.909Z,2.52
2019-06-10T11:35:46.720Z,1.62
2019-06-10T11:38:16.640Z,1.65
2019-06-10T11:40:47.156Z,1.32
2019-06-10T11:43:18.450Z,1.98
2019-06-10T11:45:53.287Z,1.85
2019-06-10T11:48:19.912Z,1.32
2019-06-10T11:50:49.723Z,1.90
2019-06-10T11:53:19.458Z,1.85
2019-06-10T11:55:51.638Z,2.40
2019-06-10T11:58:22.466Z,2.37
2019-06-10T12:00:55.851Z,2.70
2019-06-10T12:03:23.800Z,1.85
2019-06-10T12:05:56.996Z,2.30
2019-06-10T12:08:27.130Z,2.22
2019-06-10T12:11:00.493Z,2.12
2019-06-10T12:13:28.413Z,2.15
2019-06-10T12:18:29.612Z,2.90
2019-06-10T12:21:03.160Z,2.95
2019-06-10T12:23:33.626Z,2.75
2019-06-10T12:26:04.762Z,2.50
2019-06-10T12:28:34.014Z,2.80
2019-06-10T12:31:06.850Z,3.15
2019-06-10T12:33:35.278Z,2.72
2019-06-10T12:36:07.510Z,2.65
2019-06-10T12:38:43.484Z,3.98
2019-06-10T12:41:16.339Z,3.20
2019-06-10T12:43:46.504Z,4.20
2019-06-10T12:46:16.460Z,3.20
2019-06-10T12:48:46.557Z,3.08
2019-06-10T12:51:18.547Z,3.43
2019-06-10T12:53:50.204Z,3.80
2019-06-10T12:56:22.786Z,3.67
2019-06-10T12:58:54.619Z,3.15
2019-06-10T13:01:24.263Z,3.62
2019-06-10T13:03:55.565Z,3.12
2019-06-10T13:06:27.116Z,3.45
2019-06-10T13:08:58.070Z,3.40
2019-06-10T13:11:27.863Z,3.67
2019-06-10T13:13:57.864Z,3.40
2019-06-10T13:16:29.619Z,3.52
2019-06-10T13:19:00.135Z,3.35
2019-06-10T13:21:30.248Z,3.52
2019-06-10T13:24:02.537Z,4.10
2019-06-10T13:26:35.227Z,3.47
2019-06-10T13:29:08.737Z,3.72
2019-06-10T13:31:36.704Z,3.45
2019-06-10T13:34:11.111Z,4.12
2019-06-10T13:36:38.050Z,3.90
2019-06-10T13:39:10.538Z,4.53
2019-06-10T13:41:40.275Z,3.25
2019-06-10T13:44:12.537Z,4.12
2019-06-10T13:46:43.387Z,4.17
2019-06-10T13:49:15.500Z,3.77
2019-06-10T13:51:46.536Z,4.42
2019-06-10T13:54:17.202Z,4.60
2019-06-10T13:56:47.980Z,4.58
2019-06-10T13:59:17.859Z,4.00
2019-06-10T14:01:47.559Z,3.60
2019-06-10T14:04:21.800Z,4.22
2019-06-10T14:06:50.579Z,4.40
2019-06-10T14:09:22.794Z,4.08
2019-06-10T14:11:52.348Z,5.00
2019-06-10T14:14:22.983Z,4.30
2019-06-10T14:16:54.093Z,5.08
2019-06-10T14:19:24.731Z,4.77
2019-06-10T14:21:54.587Z,5.47
2019-06-10T14:24:24.664Z,5.60
2019-06-10T14:26:54.393Z,5.53
2019-06-10T14:29:24.191Z,4.93
2019-06-10T14:31:55.311Z,5.83
2019-06-10T14:34:25.207Z,5.77
2019-06-10T14:36:55.067Z,6.47
2019-06-10T14:39:24.836Z,6.20
2019-06-10T14:41:54.620Z,5.53
2019-06-10T14:44:24.597Z,5.90
2019-06-10T14:46:54.359Z,5.47
2019-06-10T14:49:24.171Z,6.13
2019-06-10T14:51:54.047Z,5.20
2019-06-10T14:54:32.320Z,4.33
2019-06-10T14:57:17.199Z,4.60
2019-06-10T14:59:46.948Z,4.67
2019-06-10T15:02:17.477Z,5.23
2019-06-10T15:04:47.340Z,5.13
2019-06-10T15:07:20.163Z,5.23
2019-06-10T15:09:58.088Z,4.57
2019-06-10T15:12:34.497Z,5.70
2019-06-10T15:18:12.219Z,5.57
2019-06-10T15:20:48.268Z,4.90
2019-06-10T15:23:19.148Z,4.70
2019-06-10T15:25:53.164Z,4.33
2019-06-10T15:28:23.522Z,4.23
2019-06-10T15:30:53.684Z,4.57
2019-06-10T15:33:24.067Z,3.30
2019-06-10T15:35:54.101Z,3.50
2019-06-10T15:38:23.812Z,3.53
2019-06-10T15:40:53.621Z,4.03
2019-06-10T15:43:23.782Z,4.47
2019-06-10T15:45:53.731Z,3.50
2019-06-10T15:48:25.263Z,4.40
2019-06-10T15:50:54.991Z,3.85
2019-06-10T15:53:25.819Z,3.72
2019-06-10T15:56:12.962Z,3.80
2019-06-10T15:58:27.302Z,4.60
2019-06-10T16:00:57.158Z,4.03
2019-06-10T16:03:26.874Z,4.43
2019-06-10T16:05:56.655Z,4.37
2019-06-10T16:08:26.418Z,3.22
2019-06-10T16:10:56.180Z,3.83
2019-06-10T16:13:26.067Z,3.50
2019-06-10T16:15:55.891Z,4.70
2019-06-10T16:18:27.899Z,4.00
2019-06-10T16:20:57.050Z,3.73
2019-06-10T16:23:27.007Z,3.70
2019-06-10T16:25:57.766Z,4.20
2019-06-10T16:28:27.579Z,4.33
2019-06-10T16:30:57.351Z,3.20
2019-06-10T16:33:27.780Z,3.80
2019-06-10T16:35:57.895Z,3.80
2019-06-10T16:38:27.604Z,3.07
2019-06-10T16:40:57.407Z,4.80
2019-06-10T16:43:27.738Z,4.03
2019-06-10T16:45:57.726Z,3.47
2019-06-10T16:48:27.513Z,4.27
2019-06-10T16:50:57.330Z,3.93
2019-06-10T16:53:30.459Z,4.07
2019-06-10T16:55:58.500Z,5.57
2019-06-10T16:58:28.565Z,4.30
2019-06-10T17:00:58.317Z,5.03
2019-06-10T17:03:29.187Z,4.10
2019-06-10T17:05:59.536Z,4.07
2019-06-10T17:08:30.291Z,4.53
2019-06-10T17:11:03.068Z,6.73
2019-06-10T17:13:31.859Z,6.70
2019-06-10T17:16:03.421Z,5.77
2019-06-10T17:18:33.848Z,4.67
2019-06-10T17:21:04.826Z,5.70
2019-06-10T17:23:36.481Z,6.70
2019-06-10T17:26:06.164Z,6.47
2019-06-10T17:28:37.059Z,7.00
2019-06-10T17:31:07.040Z,6.80
2019-06-10T17:33:36.770Z,7.77
2019-06-10T17:36:06.606Z,4.03
2019-06-10T17:38:36.295Z,1.90
2019-06-10T17:41:06.164Z,1.30
2019-06-10T17:43:36.842Z,1.60
2019-06-10T17:46:06.548Z,1.17
2019-06-10T17:48:36.317Z,1.30
2019-06-10T17:51:07.716Z,1.80
2019-06-10T17:53:37.564Z,2.33
2019-06-10T17:56:07.403Z,2.17
2019-06-10T17:58:50.103Z,2.67
2019-06-10T18:01:08.628Z,2.57
2019-06-10T18:03:40.112Z,2.90
2019-06-10T18:06:10.051Z,3.23
2019-06-10T18:08:40.804Z,3.83
2019-06-10T18:11:12.783Z,3.93
2019-06-10T18:13:42.887Z,4.57
2019-06-10T18:16:13.865Z,4.53
2019-06-10T18:18:44.599Z,4.80
2019-06-10T18:21:14.287Z,5.07
2019-06-10T18:23:44.051Z,5.10
2019-06-10T18:26:13.826Z,5.27
2019-06-10T18:29:00.218Z,5.20
2019-06-10T18:31:18.360Z,5.53
2019-06-10T18:33:46.421Z,5.53
2019-06-10T18:36:16.322Z,5.73
2019-06-10T18:38:46.043Z,5.53
2019-06-10T18:41:15.823Z,6.10
2019-06-10T18:43:45.515Z,5.87
2019-06-10T18:46:15.291Z,7.07
2019-06-10T18:48:45.009Z,4.93
2019-06-10T18:51:14.779Z,5.63
2019-06-10T18:53:44.644Z,6.13
2019-06-10T18:56:15.959Z,5.53
2019-06-10T18:58:45.752Z,5.43
2019-06-10T19:01:15.652Z,5.80
2019-06-10T19:03:45.376Z,5.17
2019-06-10T19:06:15.171Z,6.00
2019-06-10T19:08:44.859Z,5.80
2019-06-10T19:11:14.651Z,6.20
2019-06-10T19:13:44.384Z,6.93
2019-06-10T19:16:14.090Z,5.67
2019-06-10T19:18:43.877Z,6.10
2019-06-10T19:21:15.424Z,5.43
2019-06-10T19:23:45.219Z,5.47
2019-06-10T19:26:14.995Z,5.57
2019-06-10T19:28:45.444Z,5.10
2019-06-10T19:31:15.345Z,5.40
2019-06-10T19:33:45.578Z,5.83
2019-06-10T19:36:15.444Z,5.87
2019-06-10T19:38:47.412Z,4.70
2019-06-10T19:41:17.231Z,4.53
2019-06-10T19:43:47.012Z,5.73
2019-06-10T19:46:16.717Z,5.23
2019-06-10T19:48:56.980Z,5.10
2019-06-10T19:51:19.779Z,5.13
2019-06-10T19:53:49.462Z,4.90
2019-06-10T19:56:19.365Z,6.47
2019-06-10T19:58:49.971Z,6.13
2019-06-10T20:01:22.574Z,7.00
2019-06-10T20:03:52.595Z,5.97
2019-06-10T20:06:22.315Z,5.43
2019-06-10T20:08:52.345Z,5.47
2019-06-10T20:11:22.860Z,6.07
2019-06-10T20:13:53.863Z,5.77
2019-06-10T20:16:23.562Z,5.30
2019-06-10T20:18:53.764Z,6.03
2019-06-10T20:21:23.558Z,5.00
2019-06-10T20:23:53.384Z,5.47
2019-06-10T20:26:23.228Z,5.50
2019-06-10T20:28:55.315Z,4.60
2019-06-10T20:31:24.577Z,5.13
2019-06-10T20:33:54.295Z,5.63
2019-06-10T20:36:27.186Z,5.30
2019-06-10T20:38:55.552Z,5.23
2019-06-10T20:41:25.277Z,7.20
2019-06-10T20:43:55.531Z,6.40
2019-06-10T20:46:25.510Z,5.67
2019-06-10T20:48:55.202Z,6.00
2019-06-10T20:51:27.201Z,6.60
2019-06-10T20:53:56.318Z,5.87
2019-06-10T20:56:26.053Z,6.37
2019-06-10T20:58:55.747Z,6.47
2019-06-10T21:01:25.819Z,5.33
2019-06-10T21:03:55.628Z,5.67
2019-06-10T21:06:26.891Z,6.23
2019-06-10T21:08:56.575Z,6.10
2019-06-10T21:11:26.325Z,6.47
2019-06-10T21:13:56.070Z,5.67
2019-06-10T21:16:25.949Z,5.33
2019-06-10T21:18:55.856Z,5.70
2019-06-10T21:21:25.800Z,6.80
2019-06-10T21:23:55.497Z,6.73
2019-06-10T21:26:25.301Z,6.47
2019-06-10T21:28:55.378Z,6.07
2019-06-10T21:31:25.163Z,5.70
2019-06-10T21:33:55.984Z,5.70
2019-06-10T21:36:25.939Z,5.97
2019-06-10T21:38:56.044Z,6.00
2019-06-10T21:41:25.994Z,5.03
2019-06-10T21:43:59.171Z,5.67
2019-06-10T21:46:27.119Z,6.20
2019-06-10T21:48:56.827Z,5.17
2019-06-10T21:51:26.846Z,5.77
2019-06-10T21:53:56.635Z,6.00
2019-06-10T21:56:26.411Z,5.57
2019-06-10T21:58:56.203Z,6.47
2019-06-10T22:01:26.129Z,6.40
2019-06-10T22:04:00.763Z,5.63
2019-06-10T22:06:27.419Z,5.20
2019-06-10T22:08:57.209Z,5.67
2019-06-10T22:11:26.909Z,6.13
2019-06-10T22:13:58.003Z,6.13
2019-06-10T22:16:27.749Z,7.00
2019-06-10T22:18:58.722Z,7.87
2019-06-10T22:21:28.519Z,5.80
2019-06-10T22:23:58.290Z,5.43
2019-06-10T22:26:27.982Z,6.43
2019-06-10T22:28:57.820Z,6.03
2019-06-10T22:31:27.675Z,6.17
2019-06-10T22:33:57.766Z,7.20
2019-06-10T22:36:27.548Z,6.33
2019-06-10T22:38:59.278Z,6.50
2019-06-10T22:41:29.786Z,5.90
2019-06-10T22:43:59.848Z,8.50
2019-06-10T22:46:31.976Z,7.03
2019-06-10T22:49:03.039Z,6.83
2019-06-10T22:51:33.062Z,6.37
2019-06-10T22:54:03.995Z,5.77
2019-06-10T22:56:33.814Z,6.17
2019-06-10T22:59:03.670Z,6.73
2019-06-10T23:01:37.822Z,6.37
2019-06-10T23:04:05.074Z,6.27
2019-06-10T23:06:34.854Z,6.77
2019-06-10T23:09:05.877Z,5.80
2019-06-10T23:11:35.670Z,7.47
2019-06-10T23:14:05.455Z,7.17
2019-06-10T23:16:35.247Z,6.57
2019-06-10T23:19:05.203Z,6.33
2019-06-10T23:21:35.052Z,5.70
2019-06-10T23:24:04.831Z,6.23
2019-06-10T23:26:34.634Z,7.13
2019-06-10T23:29:04.499Z,6.60
2019-06-10T23:31:48.733Z,5.93
2019-06-10T23:34:05.663Z,6.00
2019-06-10T23:36:35.387Z,6.73
2019-06-10T23:39:05.996Z,6.40
2019-06-10T23:41:35.694Z,5.40
2019-06-10T23:44:05.575Z,7.47
2019-06-10T23:46:35.363Z,6.83
2019-06-10T23:49:05.347Z,6.20
2019-06-10T23:51:35.128Z,6.00
2019-06-10T23:54:06.297Z,5.57
2019-06-10T23:56:36.284Z,5.90
2019-06-10T23:59:06.074Z,6.13
